sensor_id;sensor_type;location;lat;lon;timestamp;temperature;humidity
18611;DHT22;9435;52.122;5.502;2022-07-17T00:02:00;13.30;99.90
18611;DHT22;9435;52.122;5.502;2022-07-17T00:04:28;13.20;99.90
18611;DHT22;9435;52.122;5.502;2022-07-17T00:06:55;13.20;99.90
18611;DHT22;9435;52.122;5.502;2022-07-17T00:09:22;13.20;99.90
18611;DHT22;9435;52.122;5.502;2022-07-17T00:11:49;13.20;99.90
18611;DHT22;9435;52.122;5.502;2022-07-17T00:14:16;13.10;99.90
18611;DHT22;9435;52.122;5.502;2022-07-17T00:16:43;13.10;99.90
18611;DHT22;9435;52.122;5.502;2022-07-17T00:19:10;13.10;99.90
18611;DHT22;9435;52.122;5.502;2022-07-17T00:21:39;13.10;99.90
18611;DHT22;9435;52.122;5.502;2022-07-17T00:24:06;13.00;99.90
18611;DHT22;9435;52.122;5.502;2022-07-17T00:26:33;13.00;99.90
18611;DHT22;9435;52.122;5.502;2022-07-17T00:29:02;12.90;99.90
18611;DHT22;9435;52.122;5.502;2022-07-17T00:31:29;12.90;99.90
18611;DHT22;9435;52.122;5.502;2022-07-17T00:33:57;12.80;99.90
18611;DHT22;9435;52.122;5.502;2022-07-17T00:36:24;12.80;99.90
18611;DHT22;9435;52.122;5.502;2022-07-17T00:38:52;12.90;99.90
18611;DHT22;9435;52.122;5.502;2022-07-17T00:41:19;12.80;99.90
18611;DHT22;9435;52.122;5.502;2022-07-17T00:43:46;12.80;99.90
18611;DHT22;9435;52.122;5.502;2022-07-17T00:46:13;12.80;99.90
18611;DHT22;9435;52.122;5.502;2022-07-17T00:48:40;12.70;99.90
18611;DHT22;9435;52.122;5.502;2022-07-17T00:51:08;12.70;99.90
18611;DHT22;9435;52.122;5.502;2022-07-17T00:53:36;12.60;99.90
18611;DHT22;9435;52.122;5.502;2022-07-17T00:56:05;12.60;99.90
18611;DHT22;9435;52.122;5.502;2022-07-17T00:58:34;12.50;99.90
18611;DHT22;9435;52.122;5.502;2022-07-17T01:01:04;12.50;99.90
18611;DHT22;9435;52.122;5.502;2022-07-17T01:03:32;12.50;99.90
18611;DHT22;9435;52.122;5.502;2022-07-17T01:05:59;12.40;99.90
18611;DHT22;9435;52.122;5.502;2022-07-17T01:08:26;12.40;99.90
18611;DHT22;9435;52.122;5.502;2022-07-17T01:10:53;12.40;99.90
18611;DHT22;9435;52.122;5.502;2022-07-17T01:13:22;12.40;99.90
18611;DHT22;9435;52.122;5.502;2022-07-17T01:15:49;12.40;99.90
18611;DHT22;9435;52.122;5.502;2022-07-17T01:18:16;12.30;99.90
18611;DHT22;9435;52.122;5.502;2022-07-17T01:20:45;12.30;99.90
18611;DHT22;9435;52.122;5.502;2022-07-17T01:23:14;12.30;99.90
18611;DHT22;9435;52.122;5.502;2022-07-17T01:25:42;12.20;99.90
18611;DHT22;9435;52.122;5.502;2022-07-17T01:28:09;12.20;99.90
18611;DHT22;9435;52.122;5.502;2022-07-17T01:30:37;12.20;99.90
18611;DHT22;9435;52.122;5.502;2022-07-17T01:33:11;12.20;99.90
18611;DHT22;9435;52.122;5.502;2022-07-17T01:35:38;12.10;99.90
18611;DHT22;9435;52.122;5.502;2022-07-17T01:38:05;12.10;99.90
18611;DHT22;9435;52.122;5.502;2022-07-17T01:40:33;12.10;99.90
18611;DHT22;9435;52.122;5.502;2022-07-17T01:43:00;12.00;99.90
18611;DHT22;9435;52.122;5.502;2022-07-17T01:45:27;12.00;99.90
18611;DHT22;9435;52.122;5.502;2022-07-17T01:47:55;12.00;99.90
18611;DHT22;9435;52.122;5.502;2022-07-17T01:50:22;12.00;99.90
18611;DHT22;9435;52.122;5.502;2022-07-17T01:52:49;11.90;99.90
18611;DHT22;9435;52.122;5.502;2022-07-17T01:55:16;11.90;99.90
18611;DHT22;9435;52.122;5.502;2022-07-17T01:57:44;11.90;99.90
18611;DHT22;9435;52.122;5.502;2022-07-17T02:00:13;11.90;99.90
18611;DHT22;9435;52.122;5.502;2022-07-17T02:02:42;11.90;99.90
18611;DHT22;9435;52.122;5.502;2022-07-17T02:05:09;11.80;99.90
18611;DHT22;9435;52.122;5.502;2022-07-17T02:07:36;11.80;99.90
18611;DHT22;9435;52.122;5.502;2022-07-17T02:10:07;11.80;99.90
18611;DHT22;9435;52.122;5.502;2022-07-17T02:12:34;11.80;99.90
18611;DHT22;9435;52.122;5.502;2022-07-17T02:15:04;11.80;99.90
18611;DHT22;9435;52.122;5.502;2022-07-17T02:17:31;11.70;99.90
18611;DHT22;9435;52.122;5.502;2022-07-17T02:19:58;11.70;99.90
18611;DHT22;9435;52.122;5.502;2022-07-17T02:22:25;11.70;99.90
18611;DHT22;9435;52.122;5.502;2022-07-17T02:24:52;11.60;99.90
18611;DHT22;9435;52.122;5.502;2022-07-17T02:27:19;11.60;99.90
18611;DHT22;9435;52.122;5.502;2022-07-17T02:29:46;11.60;99.90
18611;DHT22;9435;52.122;5.502;2022-07-17T02:32:15;11.60;99.90
18611;DHT22;9435;52.122;5.502;2022-07-17T02:34:42;11.60;99.90
18611;DHT22;9435;52.122;5.502;2022-07-17T02:37:09;11.60;99.90
18611;DHT22;9435;52.122;5.502;2022-07-17T02:39:36;11.60;99.90
18611;DHT22;9435;52.122;5.502;2022-07-17T02:42:18;11.60;99.90
18611;DHT22;9435;52.122;5.502;2022-07-17T02:44:45;11.50;99.90
18611;DHT22;9435;52.122;5.502;2022-07-17T02:47:13;11.50;99.90
18611;DHT22;9435;52.122;5.502;2022-07-17T02:49:41;11.50;99.90
18611;DHT22;9435;52.122;5.502;2022-07-17T02:52:08;11.40;99.90
18611;DHT22;9435;52.122;5.502;2022-07-17T02:54:35;11.30;99.90
18611;DHT22;9435;52.122;5.502;2022-07-17T02:57:02;11.30;99.90
18611;DHT22;9435;52.122;5.502;2022-07-17T02:59:29;11.30;99.90
18611;DHT22;9435;52.122;5.502;2022-07-17T03:01:56;11.30;99.90
18611;DHT22;9435;52.122;5.502;2022-07-17T03:04:23;11.30;99.90
18611;DHT22;9435;52.122;5.502;2022-07-17T03:06:52;11.20;99.90
18611;DHT22;9435;52.122;5.502;2022-07-17T03:09:19;11.30;99.90
18611;DHT22;9435;52.122;5.502;2022-07-17T03:11:46;11.20;99.90
18611;DHT22;9435;52.122;5.502;2022-07-17T03:14:13;11.20;99.90
18611;DHT22;9435;52.122;5.502;2022-07-17T03:16:40;11.10;99.90
18611;DHT22;9435;52.122;5.502;2022-07-17T03:19:07;11.10;99.90
18611;DHT22;9435;52.122;5.502;2022-07-17T03:21:34;11.10;99.90
18611;DHT22;9435;52.122;5.502;2022-07-17T03:24:03;11.10;99.90
18611;DHT22;9435;52.122;5.502;2022-07-17T03:26:30;11.10;99.90
18611;DHT22;9435;52.122;5.502;2022-07-17T03:28:57;11.00;99.90
18611;DHT22;9435;52.122;5.502;2022-07-17T03:31:24;11.10;99.90
18611;DHT22;9435;52.122;5.502;2022-07-17T03:33:51;11.00;99.90
18611;DHT22;9435;52.122;5.502;2022-07-17T03:36:18;10.90;99.90
18611;DHT22;9435;52.122;5.502;2022-07-17T03:38:45;10.90;99.90
18611;DHT22;9435;52.122;5.502;2022-07-17T03:41:14;10.90;99.90
18611;DHT22;9435;52.122;5.502;2022-07-17T03:43:41;10.80;99.90
18611;DHT22;9435;52.122;5.502;2022-07-17T03:46:08;10.90;99.90
18611;DHT22;9435;52.122;5.502;2022-07-17T03:48:35;10.90;99.90
18611;DHT22;9435;52.122;5.502;2022-07-17T03:51:03;10.90;99.90
18611;DHT22;9435;52.122;5.502;2022-07-17T03:53:30;10.90;99.90
18611;DHT22;9435;52.122;5.502;2022-07-17T03:55:57;10.90;99.90
18611;DHT22;9435;52.122;5.502;2022-07-17T03:58:25;10.80;99.90
18611;DHT22;9435;52.122;5.502;2022-07-17T04:00:52;10.90;99.90
18611;DHT22;9435;52.122;5.502;2022-07-17T04:03:20;10.80;99.90
18611;DHT22;9435;52.122;5.502;2022-07-17T04:05:47;10.80;99.90
18611;DHT22;9435;52.122;5.502;2022-07-17T04:08:14;10.90;99.90
18611;DHT22;9435;52.122;5.502;2022-07-17T04:10:41;10.90;99.90
18611;DHT22;9435;52.122;5.502;2022-07-17T04:13:08;10.90;99.90
18611;DHT22;9435;52.122;5.502;2022-07-17T04:15:38;10.90;99.90
18611;DHT22;9435;52.122;5.502;2022-07-17T04:18:19;10.90;99.90
18611;DHT22;9435;52.122;5.502;2022-07-17T04:20:47;10.90;99.90
18611;DHT22;9435;52.122;5.502;2022-07-17T04:23:14;10.90;99.90
18611;DHT22;9435;52.122;5.502;2022-07-17T04:25:42;10.90;99.90
18611;DHT22;9435;52.122;5.502;2022-07-17T04:28:09;10.90;99.90
18611;DHT22;9435;52.122;5.502;2022-07-17T04:30:38;11.00;99.90
18611;DHT22;9435;52.122;5.502;2022-07-17T04:33:05;11.00;99.90
18611;DHT22;9435;52.122;5.502;2022-07-17T04:35:33;11.10;99.90
18611;DHT22;9435;52.122;5.502;2022-07-17T04:38:00;11.10;99.90
18611;DHT22;9435;52.122;5.502;2022-07-17T04:40:27;11.10;99.90
18611;DHT22;9435;52.122;5.502;2022-07-17T04:42:54;11.20;99.90
18611;DHT22;9435;52.122;5.502;2022-07-17T04:45:21;11.20;99.90
18611;DHT22;9435;52.122;5.502;2022-07-17T04:47:50;11.20;99.90
18611;DHT22;9435;52.122;5.502;2022-07-17T04:50:17;11.30;99.90
18611;DHT22;9435;52.122;5.502;2022-07-17T04:52:44;11.20;99.90
18611;DHT22;9435;52.122;5.502;2022-07-17T04:55:11;11.20;99.90
18611;DHT22;9435;52.122;5.502;2022-07-17T04:57:38;11.30;99.90
18611;DHT22;9435;52.122;5.502;2022-07-17T05:00:06;11.20;99.90
18611;DHT22;9435;52.122;5.502;2022-07-17T05:02:34;11.30;99.90
18611;DHT22;9435;52.122;5.502;2022-07-17T05:05:03;11.30;99.90
18611;DHT22;9435;52.122;5.502;2022-07-17T05:07:31;11.30;99.90
18611;DHT22;9435;52.122;5.502;2022-07-17T05:09:58;11.40;99.90
18611;DHT22;9435;52.122;5.502;2022-07-17T05:12:25;11.40;99.90
18611;DHT22;9435;52.122;5.502;2022-07-17T05:14:52;11.50;99.90
18611;DHT22;9435;52.122;5.502;2022-07-17T05:17:19;11.50;99.90
18611;DHT22;9435;52.122;5.502;2022-07-17T05:19:46;11.60;99.90
18611;DHT22;9435;52.122;5.502;2022-07-17T05:22:14;11.70;99.90
18611;DHT22;9435;52.122;5.502;2022-07-17T05:24:42;11.70;99.90
18611;DHT22;9435;52.122;5.502;2022-07-17T05:27:09;11.70;99.90
18611;DHT22;9435;52.122;5.502;2022-07-17T05:29:36;11.90;99.90
18611;DHT22;9435;52.122;5.502;2022-07-17T05:32:04;11.90;99.90
18611;DHT22;9435;52.122;5.502;2022-07-17T05:34:31;12.00;99.90
18611;DHT22;9435;52.122;5.502;2022-07-17T05:36:58;12.10;99.90
18611;DHT22;9435;52.122;5.502;2022-07-17T05:39:26;12.20;99.90
18611;DHT22;9435;52.122;5.502;2022-07-17T05:41:53;12.30;99.90
18611;DHT22;9435;52.122;5.502;2022-07-17T05:44:20;12.60;99.90
18611;DHT22;9435;52.122;5.502;2022-07-17T05:46:47;12.80;99.90
18611;DHT22;9435;52.122;5.502;2022-07-17T05:49:14;13.00;99.90
18611;DHT22;9435;52.122;5.502;2022-07-17T05:51:41;13.10;99.90
18611;DHT22;9435;52.122;5.502;2022-07-17T05:54:08;13.20;99.90
18611;DHT22;9435;52.122;5.502;2022-07-17T05:56:37;13.40;99.90
18611;DHT22;9435;52.122;5.502;2022-07-17T05:59:04;13.50;99.90
18611;DHT22;9435;52.122;5.502;2022-07-17T06:01:31;13.70;99.90
18611;DHT22;9435;52.122;5.502;2022-07-17T06:03:58;13.90;99.90
18611;DHT22;9435;52.122;5.502;2022-07-17T06:06:25;14.20;99.90
18611;DHT22;9435;52.122;5.502;2022-07-17T06:08:52;14.40;99.90
18611;DHT22;9435;52.122;5.502;2022-07-17T06:11:19;14.70;99.90
18611;DHT22;9435;52.122;5.502;2022-07-17T06:13:47;15.00;99.90
18611;DHT22;9435;52.122;5.502;2022-07-17T06:16:14;15.20;99.90
18611;DHT22;9435;52.122;5.502;2022-07-17T06:18:41;15.30;99.90
18611;DHT22;9435;52.122;5.502;2022-07-17T06:21:08;15.60;99.90
18611;DHT22;9435;52.122;5.502;2022-07-17T06:23:35;15.80;99.90
18611;DHT22;9435;52.122;5.502;2022-07-17T06:26:02;16.00;99.90
18611;DHT22;9435;52.122;5.502;2022-07-17T06:28:29;16.30;99.90
18611;DHT22;9435;52.122;5.502;2022-07-17T06:30:58;16.20;99.90
18611;DHT22;9435;52.122;5.502;2022-07-17T06:33:26;16.50;99.90
18611;DHT22;9435;52.122;5.502;2022-07-17T06:35:53;16.70;99.90
18611;DHT22;9435;52.122;5.502;2022-07-17T06:38:20;16.90;99.90
18611;DHT22;9435;52.122;5.502;2022-07-17T06:40:47;17.30;99.90
18611;DHT22;9435;52.122;5.502;2022-07-17T06:43:15;17.70;99.90
18611;DHT22;9435;52.122;5.502;2022-07-17T06:45:42;18.00;99.90
18611;DHT22;9435;52.122;5.502;2022-07-17T06:48:10;18.20;99.90
18611;DHT22;9435;52.122;5.502;2022-07-17T06:50:37;18.50;99.90
18611;DHT22;9435;52.122;5.502;2022-07-17T06:53:04;18.80;99.90
18611;DHT22;9435;52.122;5.502;2022-07-17T06:55:31;19.10;99.90
18611;DHT22;9435;52.122;5.502;2022-07-17T06:57:58;19.30;99.90
18611;DHT22;9435;52.122;5.502;2022-07-17T07:00:25;19.40;99.90
18611;DHT22;9435;52.122;5.502;2022-07-17T07:02:53;19.60;99.90
18611;DHT22;9435;52.122;5.502;2022-07-17T07:05:21;19.80;99.90
18611;DHT22;9435;52.122;5.502;2022-07-17T07:07:48;20.10;99.90
18611;DHT22;9435;52.122;5.502;2022-07-17T07:10:16;20.10;99.90
18611;DHT22;9435;52.122;5.502;2022-07-17T07:12:43;20.40;99.90
18611;DHT22;9435;52.122;5.502;2022-07-17T07:15:10;20.20;99.90
18611;DHT22;9435;52.122;5.502;2022-07-17T07:17:37;20.40;99.90
18611;DHT22;9435;52.122;5.502;2022-07-17T07:20:05;20.80;99.90
18611;DHT22;9435;52.122;5.502;2022-07-17T07:22:34;21.00;99.90
18611;DHT22;9435;52.122;5.502;2022-07-17T07:25:02;21.30;99.90
18611;DHT22;9435;52.122;5.502;2022-07-17T07:27:29;21.50;99.90
18611;DHT22;9435;52.122;5.502;2022-07-17T07:29:56;21.50;99.90
18611;DHT22;9435;52.122;5.502;2022-07-17T07:32:23;21.80;99.90
18611;DHT22;9435;52.122;5.502;2022-07-17T07:34:50;21.50;99.90
18611;DHT22;9435;52.122;5.502;2022-07-17T07:37:17;21.70;99.90
18611;DHT22;9435;52.122;5.502;2022-07-17T07:39:46;21.60;99.90
18611;DHT22;9435;52.122;5.502;2022-07-17T07:42:13;21.90;99.90
18611;DHT22;9435;52.122;5.502;2022-07-17T07:44:40;21.90;99.90
18611;DHT22;9435;52.122;5.502;2022-07-17T07:47:07;21.80;99.90
18611;DHT22;9435;52.122;5.502;2022-07-17T07:49:34;22.20;99.90
18611;DHT22;9435;52.122;5.502;2022-07-17T07:52:01;22.30;99.90
18611;DHT22;9435;52.122;5.502;2022-07-17T07:54:28;22.50;99.90
18611;DHT22;9435;52.122;5.502;2022-07-17T07:56:57;22.70;99.90
18611;DHT22;9435;52.122;5.502;2022-07-17T07:59:24;22.70;99.90
18611;DHT22;9435;52.122;5.502;2022-07-17T08:01:51;22.90;99.90
18611;DHT22;9435;52.122;5.502;2022-07-17T08:04:18;22.50;99.90
18611;DHT22;9435;52.122;5.502;2022-07-17T08:06:45;22.20;99.90
18611;DHT22;9435;52.122;5.502;2022-07-17T08:09:12;22.00;99.90
18611;DHT22;9435;52.122;5.502;2022-07-17T08:11:39;22.70;99.90
18611;DHT22;9435;52.122;5.502;2022-07-17T08:14:08;22.80;99.90
18611;DHT22;9435;52.122;5.502;2022-07-17T08:16:35;23.10;99.90
18611;DHT22;9435;52.122;5.502;2022-07-17T08:19:02;23.10;99.90
18611;DHT22;9435;52.122;5.502;2022-07-17T08:21:29;22.80;99.90
18611;DHT22;9435;52.122;5.502;2022-07-17T08:23:56;23.10;99.90
18611;DHT22;9435;52.122;5.502;2022-07-17T08:26:23;22.80;99.90
18611;DHT22;9435;52.122;5.502;2022-07-17T08:28:50;22.90;99.90
18611;DHT22;9435;52.122;5.502;2022-07-17T08:31:19;23.10;99.90
18611;DHT22;9435;52.122;5.502;2022-07-17T08:33:46;22.90;99.90
18611;DHT22;9435;52.122;5.502;2022-07-17T08:36:13;23.40;99.90
18611;DHT22;9435;52.122;5.502;2022-07-17T08:38:40;23.50;99.90
18611;DHT22;9435;52.122;5.502;2022-07-17T08:41:07;23.00;99.90
18611;DHT22;9435;52.122;5.502;2022-07-17T08:43:35;23.10;99.90
18611;DHT22;9435;52.122;5.502;2022-07-17T08:46:03;23.40;99.90
18611;DHT22;9435;52.122;5.502;2022-07-17T08:48:31;23.70;99.90
18611;DHT22;9435;52.122;5.502;2022-07-17T08:51:00;23.90;99.90
18611;DHT22;9435;52.122;5.502;2022-07-17T08:53:27;24.10;99.90
18611;DHT22;9435;52.122;5.502;2022-07-17T08:55:54;24.40;99.90
18611;DHT22;9435;52.122;5.502;2022-07-17T08:58:21;24.30;99.90
18611;DHT22;9435;52.122;5.502;2022-07-17T09:00:49;24.10;99.90
18611;DHT22;9435;52.122;5.502;2022-07-17T09:03:17;24.10;99.90
18611;DHT22;9435;52.122;5.502;2022-07-17T09:05:46;24.50;99.90
18611;DHT22;9435;52.122;5.502;2022-07-17T09:08:19;24.70;99.90
18611;DHT22;9435;52.122;5.502;2022-07-17T09:10:48;24.80;99.90
18611;DHT22;9435;52.122;5.502;2022-07-17T09:13:17;25.10;99.90
18611;DHT22;9435;52.122;5.502;2022-07-17T09:15:44;24.20;99.90
18611;DHT22;9435;52.122;5.502;2022-07-17T09:18:12;23.30;99.90
18611;DHT22;9435;52.122;5.502;2022-07-17T09:20:46;23.40;99.90
18611;DHT22;9435;52.122;5.502;2022-07-17T09:23:13;23.70;99.90
18611;DHT22;9435;52.122;5.502;2022-07-17T09:25:42;22.80;99.90
18611;DHT22;9435;52.122;5.502;2022-07-17T09:28:11;23.00;99.90
18611;DHT22;9435;52.122;5.502;2022-07-17T09:30:40;23.60;99.90
18611;DHT22;9435;52.122;5.502;2022-07-17T09:33:12;24.10;99.90
18611;DHT22;9435;52.122;5.502;2022-07-17T09:35:47;24.90;99.90
18611;DHT22;9435;52.122;5.502;2022-07-17T09:38:25;24.50;99.90
18611;DHT22;9435;52.122;5.502;2022-07-17T09:41:02;24.00;99.90
18611;DHT22;9435;52.122;5.502;2022-07-17T09:43:43;23.80;99.90
18611;DHT22;9435;52.122;5.502;2022-07-17T09:46:14;24.20;99.90
18611;DHT22;9435;52.122;5.502;2022-07-17T10:01:28;24.30;99.90
18611;DHT22;9435;52.122;5.502;2022-07-17T10:04:03;23.90;99.90
18611;DHT22;9435;52.122;5.502;2022-07-17T10:06:33;24.70;99.90
18611;DHT22;9435;52.122;5.502;2022-07-17T10:09:02;23.80;99.90
18611;DHT22;9435;52.122;5.502;2022-07-17T10:11:43;23.50;99.90
18611;DHT22;9435;52.122;5.502;2022-07-17T10:17:10;23.80;99.90
18611;DHT22;9435;52.122;5.502;2022-07-17T10:19:46;24.30;99.90
18611;DHT22;9435;52.122;5.502;2022-07-17T10:22:40;24.30;99.90
18611;DHT22;9435;52.122;5.502;2022-07-17T10:25:13;24.10;99.90
18611;DHT22;9435;52.122;5.502;2022-07-17T10:27:52;24.40;99.90
18611;DHT22;9435;52.122;5.502;2022-07-17T10:30:28;24.40;99.90
18611;DHT22;9435;52.122;5.502;2022-07-17T10:33:05;24.80;99.90
18611;DHT22;9435;52.122;5.502;2022-07-17T10:35:43;25.20;99.90
18611;DHT22;9435;52.122;5.502;2022-07-17T10:48:58;25.70;99.90
18611;DHT22;9435;52.122;5.502;2022-07-17T10:51:28;24.70;99.90
18611;DHT22;9435;52.122;5.502;2022-07-17T10:53:56;25.00;99.90
18611;DHT22;9435;52.122;5.502;2022-07-17T10:56:23;25.40;99.90
18611;DHT22;9435;52.122;5.502;2022-07-17T10:58:51;24.60;99.90
18611;DHT22;9435;52.122;5.502;2022-07-17T11:01:19;24.30;99.90
18611;DHT22;9435;52.122;5.502;2022-07-17T11:03:47;25.40;99.90
18611;DHT22;9435;52.122;5.502;2022-07-17T11:10:13;25.00;99.90
18611;DHT22;9435;52.122;5.502;2022-07-17T11:12:39;25.30;99.90
18611;DHT22;9435;52.122;5.502;2022-07-17T11:15:07;25.70;99.90
18611;DHT22;9435;52.122;5.502;2022-07-17T11:17:33;26.30;99.90
18611;DHT22;9435;52.122;5.502;2022-07-17T11:19:59;26.00;99.90
18611;DHT22;9435;52.122;5.502;2022-07-17T11:22:27;26.30;99.90
18611;DHT22;9435;52.122;5.502;2022-07-17T11:24:53;25.80;99.90
18611;DHT22;9435;52.122;5.502;2022-07-17T11:27:23;25.70;99.90
18611;DHT22;9435;52.122;5.502;2022-07-17T11:29:53;25.90;99.90
18611;DHT22;9435;52.122;5.502;2022-07-17T11:32:21;26.40;99.90
18611;DHT22;9435;52.122;5.502;2022-07-17T11:34:48;26.80;99.90
18611;DHT22;9435;52.122;5.502;2022-07-17T11:37:15;26.90;99.90
18611;DHT22;9435;52.122;5.502;2022-07-17T11:39:44;27.20;99.90
18611;DHT22;9435;52.122;5.502;2022-07-17T11:42:14;27.20;99.90
18611;DHT22;9435;52.122;5.502;2022-07-17T11:44:43;27.70;99.90
18611;DHT22;9435;52.122;5.502;2022-07-17T11:47:11;27.10;99.90
18611;DHT22;9435;52.122;5.502;2022-07-17T11:49:39;27.30;99.90
18611;DHT22;9435;52.122;5.502;2022-07-17T11:52:08;27.20;99.90
18611;DHT22;9435;52.122;5.502;2022-07-17T11:54:44;27.50;99.90
18611;DHT22;9435;52.122;5.502;2022-07-17T11:57:12;27.60;99.90
18611;DHT22;9435;52.122;5.502;2022-07-17T11:59:39;27.50;99.90
18611;DHT22;9435;52.122;5.502;2022-07-17T12:02:09;27.40;99.90
18611;DHT22;9435;52.122;5.502;2022-07-17T12:04:36;27.30;99.90
18611;DHT22;9435;52.122;5.502;2022-07-17T12:07:14;27.30;99.90
18611;DHT22;9435;52.122;5.502;2022-07-17T12:09:41;27.70;99.90
18611;DHT22;9435;52.122;5.502;2022-07-17T12:12:18;27.90;99.90
18611;DHT22;9435;52.122;5.502;2022-07-17T12:14:47;28.10;99.90
18611;DHT22;9435;52.122;5.502;2022-07-17T12:17:18;28.10;99.90
18611;DHT22;9435;52.122;5.502;2022-07-17T12:19:45;28.20;99.90
18611;DHT22;9435;52.122;5.502;2022-07-17T12:22:12;27.90;99.90
18611;DHT22;9435;52.122;5.502;2022-07-17T12:24:40;27.70;99.90
18611;DHT22;9435;52.122;5.502;2022-07-17T12:27:10;27.70;99.90
18611;DHT22;9435;52.122;5.502;2022-07-17T12:29:37;27.40;99.90
18611;DHT22;9435;52.122;5.502;2022-07-17T12:32:08;27.10;99.90
18611;DHT22;9435;52.122;5.502;2022-07-17T12:34:39;26.90;99.90
18611;DHT22;9435;52.122;5.502;2022-07-17T12:37:10;26.20;99.90
18611;DHT22;9435;52.122;5.502;2022-07-17T12:39:37;25.80;99.90
18611;DHT22;9435;52.122;5.502;2022-07-17T12:42:04;25.50;99.90
18611;DHT22;9435;52.122;5.502;2022-07-17T12:44:33;25.60;99.90
18611;DHT22;9435;52.122;5.502;2022-07-17T12:47:00;25.80;99.90
18611;DHT22;9435;52.122;5.502;2022-07-17T12:49:28;25.90;99.90
18611;DHT22;9435;52.122;5.502;2022-07-17T12:51:58;25.70;99.90
18611;DHT22;9435;52.122;5.502;2022-07-17T12:54:25;26.30;99.90
18611;DHT22;9435;52.122;5.502;2022-07-17T12:56:52;26.50;99.90
18611;DHT22;9435;52.122;5.502;2022-07-17T12:59:19;26.10;99.90
18611;DHT22;9435;52.122;5.502;2022-07-17T13:01:47;26.20;99.90
18611;DHT22;9435;52.122;5.502;2022-07-17T13:04:14;26.80;99.90
18611;DHT22;9435;52.122;5.502;2022-07-17T13:06:41;27.00;99.90
18611;DHT22;9435;52.122;5.502;2022-07-17T13:09:09;27.30;99.90
18611;DHT22;9435;52.122;5.502;2022-07-17T13:11:39;27.00;99.90
18611;DHT22;9435;52.122;5.502;2022-07-17T13:14:07;27.10;99.90
18611;DHT22;9435;52.122;5.502;2022-07-17T13:16:37;26.70;99.90
18611;DHT22;9435;52.122;5.502;2022-07-17T13:19:04;26.70;99.90
18611;DHT22;9435;52.122;5.502;2022-07-17T13:21:31;26.90;99.90
18611;DHT22;9435;52.122;5.502;2022-07-17T13:23:58;27.10;99.90
18611;DHT22;9435;52.122;5.502;2022-07-17T13:26:27;27.10;99.90
18611;DHT22;9435;52.122;5.502;2022-07-17T13:28:54;27.40;99.90
18611;DHT22;9435;52.122;5.502;2022-07-17T13:31:21;27.50;99.90
18611;DHT22;9435;52.122;5.502;2022-07-17T13:33:48;26.90;99.90
18611;DHT22;9435;52.122;5.502;2022-07-17T13:36:15;25.90;99.90
18611;DHT22;9435;52.122;5.502;2022-07-17T13:38:42;26.00;99.90
18611;DHT22;9435;52.122;5.502;2022-07-17T13:41:09;26.30;99.90
18611;DHT22;9435;52.122;5.502;2022-07-17T13:43:38;25.90;99.90
18611;DHT22;9435;52.122;5.502;2022-07-17T13:46:05;25.80;99.90
18611;DHT22;9435;52.122;5.502;2022-07-17T13:48:32;26.10;99.90
18611;DHT22;9435;52.122;5.502;2022-07-17T13:50:59;26.40;99.90
18611;DHT22;9435;52.122;5.502;2022-07-17T13:53:26;26.50;99.90
18611;DHT22;9435;52.122;5.502;2022-07-17T13:55:55;26.50;99.90
18611;DHT22;9435;52.122;5.502;2022-07-17T13:58:22;26.40;99.90
18611;DHT22;9435;52.122;5.502;2022-07-17T14:00:50;26.50;99.90
18611;DHT22;9435;52.122;5.502;2022-07-17T14:03:17;26.50;99.90
18611;DHT22;9435;52.122;5.502;2022-07-17T14:05:44;26.70;99.90
18611;DHT22;9435;52.122;5.502;2022-07-17T14:08:11;26.80;99.90
18611;DHT22;9435;52.122;5.502;2022-07-17T14:10:38;26.90;99.90
18611;DHT22;9435;52.122;5.502;2022-07-17T14:13:05;26.70;99.90
18611;DHT22;9435;52.122;5.502;2022-07-17T14:15:32;26.70;99.90
18611;DHT22;9435;52.122;5.502;2022-07-17T14:18:01;27.00;99.90
18611;DHT22;9435;52.122;5.502;2022-07-17T14:20:29;26.80;99.90
18611;DHT22;9435;52.122;5.502;2022-07-17T14:22:56;26.50;99.90
18611;DHT22;9435;52.122;5.502;2022-07-17T14:25:23;26.30;99.90
18611;DHT22;9435;52.122;5.502;2022-07-17T14:27:50;26.10;99.90
18611;DHT22;9435;52.122;5.502;2022-07-17T14:30:17;26.30;99.90
18611;DHT22;9435;52.122;5.502;2022-07-17T14:32:44;26.40;99.90
18611;DHT22;9435;52.122;5.502;2022-07-17T14:35:12;26.50;99.90
18611;DHT22;9435;52.122;5.502;2022-07-17T14:37:39;26.40;99.90
18611;DHT22;9435;52.122;5.502;2022-07-17T14:40:07;26.40;99.90
18611;DHT22;9435;52.122;5.502;2022-07-17T14:42:34;26.50;99.90
18611;DHT22;9435;52.122;5.502;2022-07-17T14:45:02;26.60;99.90
18611;DHT22;9435;52.122;5.502;2022-07-17T14:47:29;26.70;99.90
18611;DHT22;9435;52.122;5.502;2022-07-17T14:49:56;26.90;99.90
18611;DHT22;9435;52.122;5.502;2022-07-17T14:52:24;26.40;99.90
18611;DHT22;9435;52.122;5.502;2022-07-17T14:54:51;26.40;99.90
18611;DHT22;9435;52.122;5.502;2022-07-17T14:57:18;26.40;99.90
18611;DHT22;9435;52.122;5.502;2022-07-17T14:59:45;26.60;99.90
18611;DHT22;9435;52.122;5.502;2022-07-17T15:02:12;26.70;99.90
18611;DHT22;9435;52.122;5.502;2022-07-17T15:04:39;27.00;99.90
18611;DHT22;9435;52.122;5.502;2022-07-17T15:07:06;27.00;99.90
18611;DHT22;9435;52.122;5.502;2022-07-17T15:09:35;27.10;99.90
18611;DHT22;9435;52.122;5.502;2022-07-17T15:12:03;27.10;99.90
18611;DHT22;9435;52.122;5.502;2022-07-17T15:14:32;26.90;99.90
18611;DHT22;9435;52.122;5.502;2022-07-17T15:16:59;26.20;99.90
18611;DHT22;9435;52.122;5.502;2022-07-17T15:19:26;26.00;99.90
18611;DHT22;9435;52.122;5.502;2022-07-17T15:21:53;26.40;99.90
18611;DHT22;9435;52.122;5.502;2022-07-17T15:24:20;26.50;99.90
18611;DHT22;9435;52.122;5.502;2022-07-17T15:26:49;25.80;99.90
18611;DHT22;9435;52.122;5.502;2022-07-17T15:29:16;25.80;99.90
18611;DHT22;9435;52.122;5.502;2022-07-17T15:31:44;25.70;99.90
18611;DHT22;9435;52.122;5.502;2022-07-17T15:34:11;25.90;99.90
18611;DHT22;9435;52.122;5.502;2022-07-17T15:36:38;25.80;99.90
18611;DHT22;9435;52.122;5.502;2022-07-17T15:39:05;25.80;99.90
18611;DHT22;9435;52.122;5.502;2022-07-17T15:41:32;25.90;99.90
18611;DHT22;9435;52.122;5.502;2022-07-17T15:44:01;25.40;99.90
18611;DHT22;9435;52.122;5.502;2022-07-17T15:46:28;25.60;99.90
18611;DHT22;9435;52.122;5.502;2022-07-17T15:48:55;25.40;99.90
18611;DHT22;9435;52.122;5.502;2022-07-17T15:51:22;25.50;99.90
18611;DHT22;9435;52.122;5.502;2022-07-17T15:53:49;25.40;99.90
18611;DHT22;9435;52.122;5.502;2022-07-17T15:56:16;25.60;99.90
18611;DHT22;9435;52.122;5.502;2022-07-17T15:58:44;25.90;99.90
18611;DHT22;9435;52.122;5.502;2022-07-17T16:01:13;26.10;99.90
18611;DHT22;9435;52.122;5.502;2022-07-17T16:03:41;25.90;99.90
18611;DHT22;9435;52.122;5.502;2022-07-17T16:06:09;25.90;99.90
18611;DHT22;9435;52.122;5.502;2022-07-17T16:08:36;25.70;99.90
18611;DHT22;9435;52.122;5.502;2022-07-17T16:11:05;25.60;99.90
18611;DHT22;9435;52.122;5.502;2022-07-17T16:13:32;25.60;99.90
18611;DHT22;9435;52.122;5.502;2022-07-17T16:15:59;25.40;99.90
18611;DHT22;9435;52.122;5.502;2022-07-17T16:18:28;25.50;99.90
18611;DHT22;9435;52.122;5.502;2022-07-17T16:20:56;25.50;99.90